Terminal Aerodrome Forecast
Issued by NWS Jackson, KY

Home | Current Version | Previous Version | Text Only | Print | Product List | Glossary On
Versions: 1 2 3 4 5 6 7 8 9 10 11 12 13 14 15 16 17 18
869
FTUS43 KJKL 202339
TAFLOZ
TAF
KLOZ 202339Z 2100/2124 22008KT P6SM FEW050 SCT200
     FM210400 21005KT P6SM VCTS SCT050CB BKN150
     FM210600 22006KT P6SM -SHRA VCTS SCT050CB BKN150
     FM211800 27006KT 6SM SHRA OVC010
     FM212100 31005KT 6SM SHRA OVC025
     FM212300 35004KT 6SM SHRA OVC015=

USA.gov is the U.S. government's official web portal to all federal, state and local government web resources and services.